sensor_id;sensor_type;location;lat;lon;timestamp;P1;durP1;ratioP1;P2;durP2;ratioP2
69256;SDS011;56376;53.356;-1.748;2023-03-01T00:00:49;8.43;;;3.60;;
69256;SDS011;56376;53.356;-1.748;2023-03-01T00:03:15;5.60;;;2.63;;
69256;SDS011;56376;53.356;-1.748;2023-03-01T00:05:44;5.27;;;2.70;;
69256;SDS011;56376;53.356;-1.748;2023-03-01T00:08:10;3.13;;;1.90;;
69256;SDS011;56376;53.356;-1.748;2023-03-01T00:10:36;3.70;;;1.80;;
69256;SDS011;56376;53.356;-1.748;2023-03-01T00:13:01;2.87;;;1.83;;
69256;SDS011;56376;53.356;-1.748;2023-03-01T00:15:27;5.97;;;2.43;;
69256;SDS011;56376;53.356;-1.748;2023-03-01T00:17:53;7.47;;;2.60;;
69256;SDS011;56376;53.356;-1.748;2023-03-01T00:20:18;4.00;;;1.93;;
69256;SDS011;56376;53.356;-1.748;2023-03-01T00:22:43;4.77;;;2.20;;
69256;SDS011;56376;53.356;-1.748;2023-03-01T00:25:09;5.33;;;2.00;;
69256;SDS011;56376;53.356;-1.748;2023-03-01T00:27:34;2.37;;;1.60;;
69256;SDS011;56376;53.356;-1.748;2023-03-01T00:29:59;3.13;;;1.30;;
69256;SDS011;56376;53.356;-1.748;2023-03-01T00:32:25;3.73;;;1.53;;
69256;SDS011;56376;53.356;-1.748;2023-03-01T00:34:50;2.03;;;1.40;;
69256;SDS011;56376;53.356;-1.748;2023-03-01T00:37:22;1.30;;;1.10;;
69256;SDS011;56376;53.356;-1.748;2023-03-01T00:39:48;2.03;;;1.30;;
69256;SDS011;56376;53.356;-1.748;2023-03-01T00:42:14;3.70;;;1.73;;
69256;SDS011;56376;53.356;-1.748;2023-03-01T00:44:40;2.30;;;1.27;;
69256;SDS011;56376;53.356;-1.748;2023-03-01T00:47:06;2.97;;;1.47;;
69256;SDS011;56376;53.356;-1.748;2023-03-01T00:49:31;2.23;;;1.80;;
69256;SDS011;56376;53.356;-1.748;2023-03-01T00:51:57;4.30;;;2.00;;
69256;SDS011;56376;53.356;-1.748;2023-03-01T00:54:22;2.73;;;1.50;;
69256;SDS011;56376;53.356;-1.748;2023-03-01T00:56:47;3.80;;;2.20;;
69256;SDS011;56376;53.356;-1.748;2023-03-01T00:59:13;9.03;;;4.07;;
69256;SDS011;56376;53.356;-1.748;2023-03-01T01:01:38;7.27;;;3.10;;
69256;SDS011;56376;53.356;-1.748;2023-03-01T01:04:08;7.57;;;3.60;;
69256;SDS011;56376;53.356;-1.748;2023-03-01T01:06:37;4.47;;;2.47;;
69256;SDS011;56376;53.356;-1.748;2023-03-01T01:09:05;3.10;;;2.23;;
69256;SDS011;56376;53.356;-1.748;2023-03-01T01:11:32;5.50;;;1.90;;
69256;SDS011;56376;53.356;-1.748;2023-03-01T01:13:58;4.77;;;2.07;;
69256;SDS011;56376;53.356;-1.748;2023-03-01T01:16:25;6.03;;;2.53;;
69256;SDS011;56376;53.356;-1.748;2023-03-01T01:18:52;3.73;;;1.80;;
69256;SDS011;56376;53.356;-1.748;2023-03-01T01:21:19;6.93;;;2.70;;
69256;SDS011;56376;53.356;-1.748;2023-03-01T01:23:46;6.87;;;2.10;;
69256;SDS011;56376;53.356;-1.748;2023-03-01T01:26:14;2.30;;;1.77;;
69256;SDS011;56376;53.356;-1.748;2023-03-01T01:28:44;6.47;;;2.60;;
69256;SDS011;56376;53.356;-1.748;2023-03-01T01:31:09;11.10;;;3.00;;
69256;SDS011;56376;53.356;-1.748;2023-03-01T01:33:35;8.00;;;2.93;;
69256;SDS011;56376;53.356;-1.748;2023-03-01T01:36:02;4.93;;;2.30;;
69256;SDS011;56376;53.356;-1.748;2023-03-01T01:38:28;3.90;;;2.37;;
69256;SDS011;56376;53.356;-1.748;2023-03-01T01:40:53;4.77;;;1.90;;
69256;SDS011;56376;53.356;-1.748;2023-03-01T01:45:49;5.97;;;2.60;;
69256;SDS011;56376;53.356;-1.748;2023-03-01T01:48:21;3.97;;;2.03;;
69256;SDS011;56376;53.356;-1.748;2023-03-01T01:50:55;8.80;;;3.25;;
69256;SDS011;56376;53.356;-1.748;2023-03-01T01:53:23;5.33;;;2.50;;
69256;SDS011;56376;53.356;-1.748;2023-03-01T01:55:54;5.43;;;2.23;;
69256;SDS011;56376;53.356;-1.748;2023-03-01T01:58:23;3.40;;;1.70;;
69256;SDS011;56376;53.356;-1.748;2023-03-01T02:00:50;4.53;;;1.83;;
69256;SDS011;56376;53.356;-1.748;2023-03-01T02:03:20;2.70;;;2.00;;
69256;SDS011;56376;53.356;-1.748;2023-03-01T02:05:55;3.23;;;2.10;;
69256;SDS011;56376;53.356;-1.748;2023-03-01T02:08:27;3.70;;;2.00;;
69256;SDS011;56376;53.356;-1.748;2023-03-01T02:10:55;2.93;;;2.00;;
69256;SDS011;56376;53.356;-1.748;2023-03-01T02:13:21;5.47;;;2.33;;
69256;SDS011;56376;53.356;-1.748;2023-03-01T02:15:46;5.07;;;2.00;;
69256;SDS011;56376;53.356;-1.748;2023-03-01T02:18:12;2.50;;;1.73;;
69256;SDS011;56376;53.356;-1.748;2023-03-01T02:23:42;1.93;;;1.43;;
69256;SDS011;56376;53.356;-1.748;2023-03-01T02:28:44;1.20;;;1.10;;
69256;SDS011;56376;53.356;-1.748;2023-03-01T02:31:11;3.83;;;1.20;;
69256;SDS011;56376;53.356;-1.748;2023-03-01T02:33:59;1.70;;;1.30;;
69256;SDS011;56376;53.356;-1.748;2023-03-01T02:36:30;1.23;;;1.07;;
69256;SDS011;56376;53.356;-1.748;2023-03-01T02:39:00;1.67;;;1.07;;
69256;SDS011;56376;53.356;-1.748;2023-03-01T02:41:28;1.70;;;1.13;;
69256;SDS011;56376;53.356;-1.748;2023-03-01T02:43:57;1.67;;;0.73;;
69256;SDS011;56376;53.356;-1.748;2023-03-01T02:46:24;1.07;;;0.93;;
69256;SDS011;56376;53.356;-1.748;2023-03-01T02:48:52;1.57;;;1.00;;
69256;SDS011;56376;53.356;-1.748;2023-03-01T02:54:17;3.00;;;1.60;;
69256;SDS011;56376;53.356;-1.748;2023-03-01T02:56:50;3.47;;;1.30;;
69256;SDS011;56376;53.356;-1.748;2023-03-01T02:59:18;3.17;;;1.40;;
69256;SDS011;56376;53.356;-1.748;2023-03-01T03:01:46;4.30;;;1.73;;
69256;SDS011;56376;53.356;-1.748;2023-03-01T03:04:14;2.87;;;1.57;;
69256;SDS011;56376;53.356;-1.748;2023-03-01T03:06:46;3.05;;;1.70;;
69256;SDS011;56376;53.356;-1.748;2023-03-01T03:09:12;3.33;;;1.40;;
69256;SDS011;56376;53.356;-1.748;2023-03-01T03:11:39;2.97;;;1.37;;
69256;SDS011;56376;53.356;-1.748;2023-03-01T03:14:05;0.93;;;0.90;;
69256;SDS011;56376;53.356;-1.748;2023-03-01T03:16:37;1.93;;;1.17;;
69256;SDS011;56376;53.356;-1.748;2023-03-01T03:19:06;2.30;;;1.20;;
69256;SDS011;56376;53.356;-1.748;2023-03-01T03:21:32;1.40;;;1.00;;
69256;SDS011;56376;53.356;-1.748;2023-03-01T03:23:58;1.20;;;1.00;;
69256;SDS011;56376;53.356;-1.748;2023-03-01T03:26:23;0.70;;;0.70;;
69256;SDS011;56376;53.356;-1.748;2023-03-01T03:28:49;1.10;;;1.00;;
69256;SDS011;56376;53.356;-1.748;2023-03-01T03:31:14;1.30;;;1.20;;
69256;SDS011;56376;53.356;-1.748;2023-03-01T03:33:39;2.60;;;1.30;;
69256;SDS011;56376;53.356;-1.748;2023-03-01T03:36:05;2.30;;;1.20;;
69256;SDS011;56376;53.356;-1.748;2023-03-01T03:38:30;2.40;;;1.17;;
69256;SDS011;56376;53.356;-1.748;2023-03-01T03:41:00;1.60;;;1.30;;
69256;SDS011;56376;53.356;-1.748;2023-03-01T03:43:28;1.80;;;1.30;;
69256;SDS011;56376;53.356;-1.748;2023-03-01T03:45:55;2.03;;;1.50;;
69256;SDS011;56376;53.356;-1.748;2023-03-01T03:48:21;1.50;;;1.30;;
69256;SDS011;56376;53.356;-1.748;2023-03-01T03:50:52;2.03;;;1.10;;
69256;SDS011;56376;53.356;-1.748;2023-03-01T03:53:20;1.37;;;1.00;;
69256;SDS011;56376;53.356;-1.748;2023-03-01T03:55:46;1.20;;;0.97;;
69256;SDS011;56376;53.356;-1.748;2023-03-01T03:58:14;0.80;;;0.80;;
69256;SDS011;56376;53.356;-1.748;2023-03-01T04:00:42;0.70;;;0.70;;
69256;SDS011;56376;53.356;-1.748;2023-03-01T04:03:09;0.70;;;0.70;;
69256;SDS011;56376;53.356;-1.748;2023-03-01T04:05:37;0.70;;;0.70;;
69256;SDS011;56376;53.356;-1.748;2023-03-01T04:08:03;1.40;;;0.80;;
69256;SDS011;56376;53.356;-1.748;2023-03-01T04:10:33;0.70;;;0.70;;
69256;SDS011;56376;53.356;-1.748;2023-03-01T04:13:10;0.83;;;0.67;;
69256;SDS011;56376;53.356;-1.748;2023-03-01T04:15:38;1.20;;;1.10;;
69256;SDS011;56376;53.356;-1.748;2023-03-01T04:18:04;0.70;;;0.70;;
69256;SDS011;56376;53.356;-1.748;2023-03-01T04:20:31;1.60;;;1.10;;
69256;SDS011;56376;53.356;-1.748;2023-03-01T04:23:01;2.43;;;1.10;;
69256;SDS011;56376;53.356;-1.748;2023-03-01T04:25:38;2.13;;;1.20;;
69256;SDS011;56376;53.356;-1.748;2023-03-01T04:28:10;1.87;;;1.07;;
69256;SDS011;56376;53.356;-1.748;2023-03-01T04:30:36;1.57;;;1.20;;
69256;SDS011;56376;53.356;-1.748;2023-03-01T04:33:03;1.67;;;1.40;;
69256;SDS011;56376;53.356;-1.748;2023-03-01T04:35:32;2.40;;;1.40;;
69256;SDS011;56376;53.356;-1.748;2023-03-01T04:37:58;2.93;;;1.33;;
69256;SDS011;56376;53.356;-1.748;2023-03-01T04:40:23;1.20;;;0.97;;
69256;SDS011;56376;53.356;-1.748;2023-03-01T04:42:49;1.27;;;1.17;;
69256;SDS011;56376;53.356;-1.748;2023-03-01T04:45:15;3.10;;;1.60;;
69256;SDS011;56376;53.356;-1.748;2023-03-01T04:47:41;3.33;;;1.67;;
69256;SDS011;56376;53.356;-1.748;2023-03-01T04:50:11;1.70;;;1.47;;
69256;SDS011;56376;53.356;-1.748;2023-03-01T04:52:38;3.27;;;1.57;;
69256;SDS011;56376;53.356;-1.748;2023-03-01T04:55:04;2.13;;;1.57;;
69256;SDS011;56376;53.356;-1.748;2023-03-01T04:57:30;1.50;;;1.30;;
69256;SDS011;56376;53.356;-1.748;2023-03-01T04:59:56;1.87;;;1.50;;
69256;SDS011;56376;53.356;-1.748;2023-03-01T05:02:22;3.73;;;1.40;;
69256;SDS011;56376;53.356;-1.748;2023-03-01T05:04:47;1.87;;;1.30;;
69256;SDS011;56376;53.356;-1.748;2023-03-01T05:07:13;1.50;;;1.30;;
69256;SDS011;56376;53.356;-1.748;2023-03-01T05:09:44;1.50;;;1.13;;
69256;SDS011;56376;53.356;-1.748;2023-03-01T05:12:11;1.50;;;1.23;;
69256;SDS011;56376;53.356;-1.748;2023-03-01T05:14:37;1.17;;;1.07;;
69256;SDS011;56376;53.356;-1.748;2023-03-01T05:17:03;2.50;;;1.53;;
69256;SDS011;56376;53.356;-1.748;2023-03-01T05:19:29;1.97;;;1.10;;
69256;SDS011;56376;53.356;-1.748;2023-03-01T05:21:56;2.53;;;1.07;;
69256;SDS011;56376;53.356;-1.748;2023-03-01T05:24:31;1.27;;;1.13;;
69256;SDS011;56376;53.356;-1.748;2023-03-01T05:26:59;2.13;;;1.50;;
69256;SDS011;56376;53.356;-1.748;2023-03-01T05:29:26;1.33;;;1.07;;
69256;SDS011;56376;53.356;-1.748;2023-03-01T05:31:54;1.40;;;1.10;;
69256;SDS011;56376;53.356;-1.748;2023-03-01T05:34:30;2.93;;;1.43;;
69256;SDS011;56376;53.356;-1.748;2023-03-01T05:36:57;1.47;;;1.10;;
69256;SDS011;56376;53.356;-1.748;2023-03-01T05:39:24;3.07;;;0.97;;
69256;SDS011;56376;53.356;-1.748;2023-03-01T05:41:57;1.20;;;1.07;;
69256;SDS011;56376;53.356;-1.748;2023-03-01T05:44:24;3.08;;;1.58;;
69256;SDS011;56376;53.356;-1.748;2023-03-01T05:46:50;1.20;;;1.10;;
69256;SDS011;56376;53.356;-1.748;2023-03-01T05:49:16;1.33;;;1.00;;
69256;SDS011;56376;53.356;-1.748;2023-03-01T05:51:42;1.97;;;1.20;;
69256;SDS011;56376;53.356;-1.748;2023-03-01T05:54:08;1.93;;;1.73;;
69256;SDS011;56376;53.356;-1.748;2023-03-01T05:56:35;2.67;;;1.00;;
69256;SDS011;56376;53.356;-1.748;2023-03-01T05:59:02;1.37;;;1.20;;
69256;SDS011;56376;53.356;-1.748;2023-03-01T06:01:29;1.93;;;1.27;;
69256;SDS011;56376;53.356;-1.748;2023-03-01T06:03:55;1.70;;;1.30;;
69256;SDS011;56376;53.356;-1.748;2023-03-01T06:06:21;1.70;;;1.20;;
69256;SDS011;56376;53.356;-1.748;2023-03-01T06:08:47;3.07;;;1.73;;
69256;SDS011;56376;53.356;-1.748;2023-03-01T06:11:13;1.70;;;1.47;;
69256;SDS011;56376;53.356;-1.748;2023-03-01T06:13:38;2.17;;;1.17;;
69256;SDS011;56376;53.356;-1.748;2023-03-01T06:16:04;3.13;;;1.40;;
69256;SDS011;56376;53.356;-1.748;2023-03-01T06:18:31;2.70;;;1.20;;
69256;SDS011;56376;53.356;-1.748;2023-03-01T06:20:56;5.07;;;1.70;;
69256;SDS011;56376;53.356;-1.748;2023-03-01T06:23:23;4.30;;;1.97;;
69256;SDS011;56376;53.356;-1.748;2023-03-01T06:25:48;3.27;;;2.30;;
69256;SDS011;56376;53.356;-1.748;2023-03-01T06:28:14;4.17;;;1.90;;
69256;SDS011;56376;53.356;-1.748;2023-03-01T06:30:39;2.03;;;1.53;;
69256;SDS011;56376;53.356;-1.748;2023-03-01T06:33:05;3.10;;;1.63;;
69256;SDS011;56376;53.356;-1.748;2023-03-01T06:35:30;3.10;;;1.80;;
69256;SDS011;56376;53.356;-1.748;2023-03-01T06:37:56;4.13;;;1.70;;
69256;SDS011;56376;53.356;-1.748;2023-03-01T06:40:22;4.23;;;1.40;;
69256;SDS011;56376;53.356;-1.748;2023-03-01T06:42:49;3.90;;;1.70;;
69256;SDS011;56376;53.356;-1.748;2023-03-01T06:45:15;3.27;;;1.73;;
69256;SDS011;56376;53.356;-1.748;2023-03-01T06:47:42;4.23;;;2.00;;
69256;SDS011;56376;53.356;-1.748;2023-03-01T06:50:07;3.67;;;1.73;;
69256;SDS011;56376;53.356;-1.748;2023-03-01T06:52:33;4.37;;;1.83;;
69256;SDS011;56376;53.356;-1.748;2023-03-01T06:54:59;3.27;;;1.53;;
69256;SDS011;56376;53.356;-1.748;2023-03-01T06:57:24;4.20;;;1.67;;
69256;SDS011;56376;53.356;-1.748;2023-03-01T06:59:50;2.67;;;1.77;;
69256;SDS011;56376;53.356;-1.748;2023-03-01T07:02:16;5.40;;;1.50;;
69256;SDS011;56376;53.356;-1.748;2023-03-01T07:04:41;1.70;;;1.20;;
69256;SDS011;56376;53.356;-1.748;2023-03-01T07:07:07;4.33;;;1.87;;
69256;SDS011;56376;53.356;-1.748;2023-03-01T07:09:33;3.30;;;1.20;;
69256;SDS011;56376;53.356;-1.748;2023-03-01T07:11:58;4.10;;;1.40;;
69256;SDS011;56376;53.356;-1.748;2023-03-01T07:14:24;1.90;;;1.20;;
69256;SDS011;56376;53.356;-1.748;2023-03-01T07:16:51;2.70;;;1.27;;
69256;SDS011;56376;53.356;-1.748;2023-03-01T07:19:18;4.33;;;1.53;;
69256;SDS011;56376;53.356;-1.748;2023-03-01T07:21:43;4.23;;;1.93;;
69256;SDS011;56376;53.356;-1.748;2023-03-01T07:24:09;1.40;;;1.10;;
69256;SDS011;56376;53.356;-1.748;2023-03-01T07:26:35;1.77;;;1.20;;
69256;SDS011;56376;53.356;-1.748;2023-03-01T07:29:01;2.43;;;1.40;;
69256;SDS011;56376;53.356;-1.748;2023-03-01T07:31:28;4.53;;;1.70;;
69256;SDS011;56376;53.356;-1.748;2023-03-01T07:33:54;3.03;;;1.47;;
69256;SDS011;56376;53.356;-1.748;2023-03-01T07:36:19;2.90;;;1.30;;
69256;SDS011;56376;53.356;-1.748;2023-03-01T07:38:45;3.60;;;1.50;;
69256;SDS011;56376;53.356;-1.748;2023-03-01T07:41:10;1.50;;;1.10;;
69256;SDS011;56376;53.356;-1.748;2023-03-01T07:43:36;3.27;;;1.10;;
69256;SDS011;56376;53.356;-1.748;2023-03-01T07:46:02;2.30;;;1.00;;
69256;SDS011;56376;53.356;-1.748;2023-03-01T07:48:29;3.47;;;1.27;;
69256;SDS011;56376;53.356;-1.748;2023-03-01T07:51:02;4.77;;;1.53;;
69256;SDS011;56376;53.356;-1.748;2023-03-01T07:53:29;2.03;;;1.42;;
69256;SDS011;56376;53.356;-1.748;2023-03-01T07:58:29;2.80;;;1.50;;
69256;SDS011;56376;53.356;-1.748;2023-03-01T08:00:54;4.87;;;1.50;;
69256;SDS011;56376;53.356;-1.748;2023-03-01T08:03:19;2.57;;;1.43;;
69256;SDS011;56376;53.356;-1.748;2023-03-01T08:05:45;5.20;;;1.40;;
69256;SDS011;56376;53.356;-1.748;2023-03-01T08:08:10;3.47;;;1.93;;
69256;SDS011;56376;53.356;-1.748;2023-03-01T08:10:36;2.77;;;2.03;;
69256;SDS011;56376;53.356;-1.748;2023-03-01T08:13:02;1.67;;;1.13;;
69256;SDS011;56376;53.356;-1.748;2023-03-01T08:15:27;2.90;;;1.00;;
69256;SDS011;56376;53.356;-1.748;2023-03-01T08:17:52;2.33;;;1.30;;
69256;SDS011;56376;53.356;-1.748;2023-03-01T08:20:18;5.10;;;1.83;;
69256;SDS011;56376;53.356;-1.748;2023-03-01T08:22:43;5.03;;;2.00;;
69256;SDS011;56376;53.356;-1.748;2023-03-01T08:25:09;5.17;;;1.80;;
69256;SDS011;56376;53.356;-1.748;2023-03-01T08:27:34;3.20;;;2.37;;
69256;SDS011;56376;53.356;-1.748;2023-03-01T08:30:00;4.23;;;2.40;;
69256;SDS011;56376;53.356;-1.748;2023-03-01T08:32:25;3.50;;;1.60;;
69256;SDS011;56376;53.356;-1.748;2023-03-01T08:34:51;5.80;;;3.97;;
69256;SDS011;56376;53.356;-1.748;2023-03-01T08:37:16;5.47;;;2.30;;
69256;SDS011;56376;53.356;-1.748;2023-03-01T08:39:41;4.07;;;2.53;;
69256;SDS011;56376;53.356;-1.748;2023-03-01T08:42:07;3.63;;;1.97;;
69256;SDS011;56376;53.356;-1.748;2023-03-01T08:44:32;7.83;;;3.03;;
69256;SDS011;56376;53.356;-1.748;2023-03-01T08:46:58;4.87;;;3.23;;
69256;SDS011;56376;53.356;-1.748;2023-03-01T08:49:25;6.33;;;3.50;;
69256;SDS011;56376;53.356;-1.748;2023-03-01T08:51:50;5.60;;;4.00;;
69256;SDS011;56376;53.356;-1.748;2023-03-01T08:54:17;6.13;;;2.93;;
69256;SDS011;56376;53.356;-1.748;2023-03-01T08:56:44;6.67;;;4.30;;
69256;SDS011;56376;53.356;-1.748;2023-03-01T08:59:10;5.07;;;2.43;;
69256;SDS011;56376;53.356;-1.748;2023-03-01T09:01:37;7.50;;;2.30;;
69256;SDS011;56376;53.356;-1.748;2023-03-01T09:04:03;4.20;;;2.27;;
69256;SDS011;56376;53.356;-1.748;2023-03-01T09:06:32;4.77;;;2.77;;
69256;SDS011;56376;53.356;-1.748;2023-03-01T09:08:58;5.20;;;2.50;;
69256;SDS011;56376;53.356;-1.748;2023-03-01T09:11:24;5.27;;;1.87;;
69256;SDS011;56376;53.356;-1.748;2023-03-01T09:13:50;3.53;;;1.77;;
69256;SDS011;56376;53.356;-1.748;2023-03-01T09:16:16;3.40;;;1.67;;
69256;SDS011;56376;53.356;-1.748;2023-03-01T09:18:44;6.00;;;2.43;;
69256;SDS011;56376;53.356;-1.748;2023-03-01T09:21:11;5.37;;;1.90;;
69256;SDS011;56376;53.356;-1.748;2023-03-01T09:23:43;6.90;;;3.10;;
69256;SDS011;56376;53.356;-1.748;2023-03-01T09:26:11;5.00;;;1.60;;
69256;SDS011;56376;53.356;-1.748;2023-03-01T09:28:39;2.27;;;1.40;;
69256;SDS011;56376;53.356;-1.748;2023-03-01T09:31:09;2.20;;;1.20;;
69256;SDS011;56376;53.356;-1.748;2023-03-01T09:33:37;4.27;;;1.33;;
69256;SDS011;56376;53.356;-1.748;2023-03-01T09:36:04;2.23;;;1.27;;
69256;SDS011;56376;53.356;-1.748;2023-03-01T09:38:32;3.00;;;1.53;;
69256;SDS011;56376;53.356;-1.748;2023-03-01T09:40:59;3.03;;;1.17;;
69256;SDS011;56376;53.356;-1.748;2023-03-01T09:43:28;3.40;;;1.40;;
69256;SDS011;56376;53.356;-1.748;2023-03-01T09:46:05;3.43;;;1.50;;
69256;SDS011;56376;53.356;-1.748;2023-03-01T09:48:40;2.53;;;1.10;;
69256;SDS011;56376;53.356;-1.748;2023-03-01T09:51:19;1.08;;;0.90;;
69256;SDS011;56376;53.356;-1.748;2023-03-01T09:53:49;2.10;;;0.90;;
69256;SDS011;56376;53.356;-1.748;2023-03-01T09:58:58;1.60;;;0.97;;
69256;SDS011;56376;53.356;-1.748;2023-03-01T10:07:07;2.63;;;1.20;;
69256;SDS011;56376;53.356;-1.748;2023-03-01T10:09:41;2.57;;;1.30;;
69256;SDS011;56376;53.356;-1.748;2023-03-01T10:12:12;3.20;;;1.60;;
69256;SDS011;56376;53.356;-1.748;2023-03-01T10:17:12;3.07;;;1.60;;
69256;SDS011;56376;53.356;-1.748;2023-03-01T10:19:45;4.27;;;2.33;;
69256;SDS011;56376;53.356;-1.748;2023-03-01T10:22:21;3.60;;;1.43;;
69256;SDS011;56376;53.356;-1.748;2023-03-01T10:24:53;3.23;;;1.43;;
69256;SDS011;56376;53.356;-1.748;2023-03-01T10:27:25;2.20;;;0.97;;
69256;SDS011;56376;53.356;-1.748;2023-03-01T10:30:02;3.00;;;1.70;;
69256;SDS011;56376;53.356;-1.748;2023-03-01T10:32:38;6.17;;;2.07;;
69256;SDS011;56376;53.356;-1.748;2023-03-01T10:35:24;3.90;;;1.60;;
69256;SDS011;56376;53.356;-1.748;2023-03-01T10:40:23;5.73;;;1.37;;
69256;SDS011;56376;53.356;-1.748;2023-03-01T10:42:49;2.50;;;1.10;;
69256;SDS011;56376;53.356;-1.748;2023-03-01T10:48:06;2.70;;;1.20;;
69256;SDS011;56376;53.356;-1.748;2023-03-01T10:50:39;3.33;;;0.83;;
69256;SDS011;56376;53.356;-1.748;2023-03-01T10:53:15;1.73;;;1.10;;
69256;SDS011;56376;53.356;-1.748;2023-03-01T10:55:45;3.00;;;1.30;;
69256;SDS011;56376;53.356;-1.748;2023-03-01T11:00:47;1.60;;;1.00;;
69256;SDS011;56376;53.356;-1.748;2023-03-01T11:03:19;1.37;;;0.80;;
69256;SDS011;56376;53.356;-1.748;2023-03-01T11:05:51;4.20;;;1.27;;
69256;SDS011;56376;53.356;-1.748;2023-03-01T11:11:05;4.17;;;1.57;;
69256;SDS011;56376;53.356;-1.748;2023-03-01T11:13:36;9.47;;;2.83;;
69256;SDS011;56376;53.356;-1.748;2023-03-01T11:16:12;3.30;;;1.40;;
69256;SDS011;56376;53.356;-1.748;2023-03-01T11:18:37;4.30;;;2.07;;
69256;SDS011;56376;53.356;-1.748;2023-03-01T11:21:04;2.40;;;1.10;;
69256;SDS011;56376;53.356;-1.748;2023-03-01T11:23:33;2.87;;;1.00;;
69256;SDS011;56376;53.356;-1.748;2023-03-01T11:26:02;3.00;;;1.30;;
69256;SDS011;56376;53.356;-1.748;2023-03-01T11:28:33;3.77;;;1.30;;
69256;SDS011;56376;53.356;-1.748;2023-03-01T11:31:05;5.17;;;1.70;;
69256;SDS011;56376;53.356;-1.748;2023-03-01T11:36:31;2.50;;;1.40;;
69256;SDS011;56376;53.356;-1.748;2023-03-01T11:39:32;4.43;;;1.50;;
69256;SDS011;56376;53.356;-1.748;2023-03-01T11:42:12;3.33;;;1.20;;
69256;SDS011;56376;53.356;-1.748;2023-03-01T11:44:43;4.03;;;1.13;;
69256;SDS011;56376;53.356;-1.748;2023-03-01T11:47:28;4.23;;;1.50;;
69256;SDS011;56376;53.356;-1.748;2023-03-01T11:55:46;3.53;;;1.20;;
69256;SDS011;56376;53.356;-1.748;2023-03-01T12:03:43;3.93;;;1.50;;
69256;SDS011;56376;53.356;-1.748;2023-03-01T12:19:53;4.20;;;1.50;;
69256;SDS011;56376;53.356;-1.748;2023-03-01T12:28:14;6.93;;;2.27;;
69256;SDS011;56376;53.356;-1.748;2023-03-01T12:33:25;5.88;;;2.83;;
69256;SDS011;56376;53.356;-1.748;2023-03-01T12:38:40;2.97;;;0.97;;
69256;SDS011;56376;53.356;-1.748;2023-03-01T12:46:44;3.60;;;1.70;;
69256;SDS011;56376;53.356;-1.748;2023-03-01T12:49:13;2.97;;;1.63;;
69256;SDS011;56376;53.356;-1.748;2023-03-01T12:51:42;4.73;;;1.20;;
69256;SDS011;56376;53.356;-1.748;2023-03-01T12:54:16;2.55;;;1.20;;
69256;SDS011;56376;53.356;-1.748;2023-03-01T12:56:47;5.67;;;1.40;;
69256;SDS011;56376;53.356;-1.748;2023-03-01T13:02:44;1.63;;;1.00;;
69256;SDS011;56376;53.356;-1.748;2023-03-01T13:07:43;3.87;;;1.30;;
69256;SDS011;56376;53.356;-1.748;2023-03-01T13:10:23;3.47;;;1.40;;
69256;SDS011;56376;53.356;-1.748;2023-03-01T13:17:47;5.15;;;1.52;;
69256;SDS011;56376;53.356;-1.748;2023-03-01T13:20:18;5.00;;;1.38;;
69256;SDS011;56376;53.356;-1.748;2023-03-01T13:22:46;3.70;;;1.30;;
69256;SDS011;56376;53.356;-1.748;2023-03-01T13:25:13;5.95;;;1.33;;
69256;SDS011;56376;53.356;-1.748;2023-03-01T13:27:41;1.92;;;1.10;;
69256;SDS011;56376;53.356;-1.748;2023-03-01T13:35:58;2.73;;;1.30;;
69256;SDS011;56376;53.356;-1.748;2023-03-01T13:41:11;9.00;;;2.97;;
69256;SDS011;56376;53.356;-1.748;2023-03-01T13:43:38;3.70;;;1.73;;
69256;SDS011;56376;53.356;-1.748;2023-03-01T13:46:28;4.47;;;1.80;;
69256;SDS011;56376;53.356;-1.748;2023-03-01T13:48:53;12.70;;;3.10;;
69256;SDS011;56376;53.356;-1.748;2023-03-01T13:51:23;7.23;;;1.73;;
69256;SDS011;56376;53.356;-1.748;2023-03-01T13:53:51;4.87;;;1.77;;
69256;SDS011;56376;53.356;-1.748;2023-03-01T13:56:19;5.70;;;1.50;;
69256;SDS011;56376;53.356;-1.748;2023-03-01T13:58:53;6.32;;;2.40;;
69256;SDS011;56376;53.356;-1.748;2023-03-01T14:03:53;3.93;;;1.50;;
69256;SDS011;56376;53.356;-1.748;2023-03-01T14:06:24;4.97;;;1.37;;
69256;SDS011;56376;53.356;-1.748;2023-03-01T14:09:05;1.70;;;1.20;;
69256;SDS011;56376;53.356;-1.748;2023-03-01T14:11:55;2.10;;;1.10;;
69256;SDS011;56376;53.356;-1.748;2023-03-01T14:19:45;4.43;;;2.45;;
69256;SDS011;56376;53.356;-1.748;2023-03-01T14:24:59;3.38;;;1.92;;
69256;SDS011;56376;53.356;-1.748;2023-03-01T14:27:32;2.37;;;1.10;;
69256;SDS011;56376;53.356;-1.748;2023-03-01T14:32:29;2.50;;;1.17;;
69256;SDS011;56376;53.356;-1.748;2023-03-01T14:34:57;3.37;;;1.07;;
69256;SDS011;56376;53.356;-1.748;2023-03-01T14:37:25;4.37;;;1.00;;
69256;SDS011;56376;53.356;-1.748;2023-03-01T14:39:53;2.33;;;1.30;;
69256;SDS011;56376;53.356;-1.748;2023-03-01T14:42:20;2.03;;;1.10;;
69256;SDS011;56376;53.356;-1.748;2023-03-01T14:44:49;3.13;;;1.10;;
69256;SDS011;56376;53.356;-1.748;2023-03-01T14:47:23;3.63;;;1.20;;
69256;SDS011;56376;53.356;-1.748;2023-03-01T14:50:01;5.17;;;1.20;;
69256;SDS011;56376;53.356;-1.748;2023-03-01T14:52:36;2.00;;;1.20;;
69256;SDS011;56376;53.356;-1.748;2023-03-01T14:55:05;2.30;;;1.00;;
69256;SDS011;56376;53.356;-1.748;2023-03-01T14:57:42;2.03;;;0.85;;
69256;SDS011;56376;53.356;-1.748;2023-03-01T15:00:10;3.07;;;1.23;;
69256;SDS011;56376;53.356;-1.748;2023-03-01T15:02:43;3.43;;;1.10;;
69256;SDS011;56376;53.356;-1.748;2023-03-01T15:05:13;2.37;;;1.10;;
69256;SDS011;56376;53.356;-1.748;2023-03-01T15:07:41;2.77;;;1.20;;
69256;SDS011;56376;53.356;-1.748;2023-03-01T15:10:25;2.78;;;1.23;;
69256;SDS011;56376;53.356;-1.748;2023-03-01T15:12:55;2.47;;;1.00;;
69256;SDS011;56376;53.356;-1.748;2023-03-01T15:17:56;1.83;;;1.20;;
69256;SDS011;56376;53.356;-1.748;2023-03-01T15:20:25;3.93;;;1.00;;
69256;SDS011;56376;53.356;-1.748;2023-03-01T15:22:54;3.60;;;1.30;;
69256;SDS011;56376;53.356;-1.748;2023-03-01T15:25:25;4.90;;;2.07;;
69256;SDS011;56376;53.356;-1.748;2023-03-01T15:27:53;1.80;;;0.77;;
69256;SDS011;56376;53.356;-1.748;2023-03-01T15:33:15;2.50;;;0.90;;
69256;SDS011;56376;53.356;-1.748;2023-03-01T15:35:44;2.90;;;1.40;;
69256;SDS011;56376;53.356;-1.748;2023-03-01T15:41:01;4.50;;;1.30;;
69256;SDS011;56376;53.356;-1.748;2023-03-01T15:43:42;1.43;;;0.90;;
69256;SDS011;56376;53.356;-1.748;2023-03-01T15:46:15;3.57;;;1.30;;
69256;SDS011;56376;53.356;-1.748;2023-03-01T15:48:44;4.67;;;1.80;;
69256;SDS011;56376;53.356;-1.748;2023-03-01T15:51:12;5.03;;;1.70;;
69256;SDS011;56376;53.356;-1.748;2023-03-01T15:53:39;2.90;;;1.30;;
69256;SDS011;56376;53.356;-1.748;2023-03-01T15:56:04;7.10;;;3.20;;
69256;SDS011;56376;53.356;-1.748;2023-03-01T15:58:32;4.37;;;2.63;;
69256;SDS011;56376;53.356;-1.748;2023-03-01T16:00:58;3.70;;;1.60;;
69256;SDS011;56376;53.356;-1.748;2023-03-01T16:03:24;3.10;;;1.03;;
69256;SDS011;56376;53.356;-1.748;2023-03-01T16:05:49;1.87;;;0.80;;
69256;SDS011;56376;53.356;-1.748;2023-03-01T16:08:16;2.07;;;1.33;;
69256;SDS011;56376;53.356;-1.748;2023-03-01T16:10:43;4.13;;;1.70;;
69256;SDS011;56376;53.356;-1.748;2023-03-01T16:13:09;5.10;;;1.77;;
69256;SDS011;56376;53.356;-1.748;2023-03-01T16:15:36;2.77;;;0.90;;
69256;SDS011;56376;53.356;-1.748;2023-03-01T16:18:03;2.30;;;1.00;;
69256;SDS011;56376;53.356;-1.748;2023-03-01T16:20:30;2.60;;;1.17;;
69256;SDS011;56376;53.356;-1.748;2023-03-01T16:23:00;1.60;;;0.90;;
69256;SDS011;56376;53.356;-1.748;2023-03-01T16:25:27;4.67;;;2.20;;
69256;SDS011;56376;53.356;-1.748;2023-03-01T16:27:53;3.20;;;1.60;;
69256;SDS011;56376;53.356;-1.748;2023-03-01T16:30:19;2.00;;;1.73;;
69256;SDS011;56376;53.356;-1.748;2023-03-01T16:32:47;2.70;;;1.80;;
69256;SDS011;56376;53.356;-1.748;2023-03-01T16:35:14;4.50;;;1.50;;
69256;SDS011;56376;53.356;-1.748;2023-03-01T16:37:42;3.70;;;1.60;;
69256;SDS011;56376;53.356;-1.748;2023-03-01T16:40:18;2.57;;;1.50;;